createdAt,value
2022-10-07T00:01:05.388Z,12.26
2022-10-07T00:03:35.024Z,12.26
2022-10-07T00:06:05.181Z,12.27
2022-10-07T00:08:33.836Z,12.27
2022-10-07T00:11:06.343Z,12.28
2022-10-07T00:13:34.238Z,12.26
2022-10-07T00:16:07.220Z,12.26
2022-10-07T00:18:38.649Z,12.31
2022-10-07T00:21:08.867Z,12.28
2022-10-07T00:23:37.257Z,12.22
2022-10-07T00:26:06.964Z,12.19
2022-10-07T00:28:36.284Z,12.19
2022-10-07T00:31:06.055Z,12.19
2022-10-07T00:33:36.983Z,12.18
2022-10-07T00:36:08.237Z,12.23
2022-10-07T00:38:36.187Z,12.18
2022-10-07T00:41:04.170Z,12.23
2022-10-07T00:43:33.054Z,12.22
2022-10-07T00:46:07.172Z,12.22
2022-10-07T00:48:39.767Z,12.21
2022-10-07T00:51:09.412Z,12.25
2022-10-07T00:53:40.587Z,12.26
2022-10-07T00:56:09.836Z,12.23
2022-10-07T00:58:41.022Z,12.24
2022-10-07T01:01:09.733Z,12.25
2022-10-07T01:03:39.727Z,12.29
2022-10-07T01:06:07.783Z,12.24
2022-10-07T01:08:35.879Z,12.26
2022-10-07T01:11:14.963Z,12.26
2022-10-07T01:13:55.843Z,12.24
2022-10-07T01:16:30.721Z,12.21
2022-10-07T01:19:14.624Z,12.23
2022-10-07T01:21:53.965Z,12.20
2022-10-07T01:24:33.303Z,12.19
2022-10-07T01:27:07.910Z,12.15
2022-10-07T01:29:39.395Z,12.15
2022-10-07T01:32:14.095Z,12.16
2022-10-07T01:34:44.251Z,12.18
2022-10-07T01:37:16.536Z,12.14
2022-10-07T01:39:50.591Z,12.15
2022-10-07T01:42:20.640Z,12.14
2022-10-07T01:44:53.538Z,12.14
2022-10-07T01:47:21.512Z,12.14
2022-10-07T01:49:49.494Z,12.15
2022-10-07T01:52:41.024Z,12.12
2022-10-07T01:55:19.917Z,12.11
2022-10-07T01:57:58.328Z,12.11
2022-10-07T02:00:26.675Z,12.11
2022-10-07T02:03:25.890Z,12.11
2022-10-07T02:06:01.839Z,12.12
2022-10-07T02:08:34.980Z,12.11
2022-10-07T02:11:16.128Z,12.09
2022-10-07T02:13:56.050Z,12.08
2022-10-07T02:16:30.331Z,12.06
2022-10-07T02:19:02.008Z,12.08
2022-10-07T02:21:32.983Z,12.07
2022-10-07T02:24:03.198Z,12.08
2022-10-07T02:26:33.866Z,12.09
2022-10-07T02:29:05.741Z,12.08
2022-10-07T02:31:35.643Z,12.06
2022-10-07T02:34:05.902Z,12.06
2022-10-07T02:36:39.033Z,12.04
2022-10-07T02:39:08.195Z,12.05
2022-10-07T02:41:41.894Z,12.10
2022-10-07T02:44:25.917Z,12.11
2022-10-07T02:46:58.167Z,12.08
2022-10-07T02:49:31.263Z,12.08
2022-10-07T02:52:02.893Z,12.09
2022-10-07T02:54:35.927Z,12.07
2022-10-07T02:57:06.747Z,12.07
2022-10-07T02:59:37.715Z,12.03
2022-10-07T03:02:08.028Z,12.07
2022-10-07T03:04:36.087Z,12.08
2022-10-07T03:07:05.407Z,12.08
2022-10-07T03:09:33.830Z,12.06
2022-10-07T03:12:01.719Z,12.04
2022-10-07T03:14:30.083Z,12.01
2022-10-07T03:16:59.361Z,11.99
2022-10-07T03:19:27.229Z,12.00
2022-10-07T03:21:56.900Z,11.99
2022-10-07T03:24:24.738Z,12.00
2022-10-07T03:26:52.624Z,12.01
2022-10-07T03:29:20.790Z,11.98
2022-10-07T03:31:48.820Z,11.99
2022-10-07T03:34:18.065Z,12.01
2022-10-07T03:36:45.906Z,12.00
2022-10-07T03:39:13.888Z,11.98
2022-10-07T03:41:42.311Z,11.95
2022-10-07T03:44:10.207Z,11.98
2022-10-07T03:46:38.186Z,11.97
2022-10-07T03:49:06.145Z,11.96
2022-10-07T03:51:36.330Z,11.92
2022-10-07T03:54:04.375Z,11.93
2022-10-07T03:56:32.379Z,11.92
2022-10-07T03:59:00.644Z,11.94
2022-10-07T04:01:31.736Z,11.94
2022-10-07T04:04:00.480Z,11.93
2022-10-07T04:06:29.774Z,11.91
2022-10-07T04:08:59.078Z,11.93
2022-10-07T04:11:27.575Z,11.93
2022-10-07T04:13:55.717Z,11.89
2022-10-07T04:16:23.692Z,11.93
2022-10-07T04:18:55.868Z,11.95
2022-10-07T04:21:24.137Z,11.93
2022-10-07T04:23:52.347Z,11.95
2022-10-07T04:26:21.745Z,11.98
2022-10-07T04:28:50.693Z,12.00
2022-10-07T04:31:18.711Z,12.04
2022-10-07T04:33:46.706Z,12.01
2022-10-07T04:36:14.611Z,12.05
2022-10-07T04:38:44.330Z,12.04
2022-10-07T04:41:12.170Z,12.04
2022-10-07T04:43:41.395Z,12.09
2022-10-07T04:46:14.341Z,12.10
2022-10-07T04:48:45.732Z,12.08
2022-10-07T04:51:14.253Z,12.13
2022-10-07T04:53:42.124Z,12.14
2022-10-07T04:56:11.171Z,12.15
2022-10-07T04:58:39.278Z,12.12
2022-10-07T05:01:11.434Z,12.12
2022-10-07T05:03:41.108Z,12.18
2022-10-07T05:06:11.924Z,12.21
2022-10-07T05:08:39.981Z,12.21
2022-10-07T05:11:07.819Z,12.22
2022-10-07T05:13:38.504Z,12.23
2022-10-07T05:16:09.867Z,12.25
2022-10-07T05:18:40.058Z,12.24
2022-10-07T05:21:08.900Z,12.25
2022-10-07T05:23:37.199Z,12.29
2022-10-07T05:26:08.092Z,12.26
2022-10-07T05:28:36.656Z,12.24
2022-10-07T05:31:09.502Z,12.22
2022-10-07T05:33:39.535Z,12.20
2022-10-07T05:36:09.896Z,12.22
2022-10-07T05:38:37.983Z,12.22
2022-10-07T05:41:07.854Z,12.25
2022-10-07T05:43:38.073Z,12.28
2022-10-07T05:46:08.895Z,12.27
2022-10-07T05:48:39.565Z,12.26
2022-10-07T05:51:09.920Z,12.28
2022-10-07T05:53:41.238Z,12.28
2022-10-07T05:56:12.144Z,12.34
2022-10-07T05:58:40.131Z,12.33
2022-10-07T06:01:14.270Z,12.32
2022-10-07T06:03:42.763Z,12.31
2022-10-07T06:06:12.172Z,12.38
2022-10-07T06:08:39.993Z,12.40
2022-10-07T06:11:28.057Z,12.43
2022-10-07T06:13:56.205Z,12.41
2022-10-07T06:16:25.274Z,12.47
2022-10-07T06:18:53.846Z,12.52
2022-10-07T06:21:27.900Z,12.53
2022-10-07T06:23:57.943Z,12.54
2022-10-07T06:26:26.187Z,12.55
2022-10-07T06:28:54.104Z,12.58
2022-10-07T06:31:25.364Z,12.61
2022-10-07T06:33:53.723Z,12.64
2022-10-07T06:36:23.377Z,12.71
2022-10-07T06:38:52.363Z,12.73
2022-10-07T06:41:21.212Z,12.76
2022-10-07T06:43:49.682Z,12.75
2022-10-07T06:46:19.428Z,12.78
2022-10-07T06:48:47.392Z,12.81
2022-10-07T06:51:16.514Z,12.84
2022-10-07T06:53:46.177Z,12.88
2022-10-07T06:56:15.379Z,12.90
2022-10-07T06:58:43.736Z,12.91
2022-10-07T07:01:12.468Z,12.97
2022-10-07T07:03:40.727Z,13.00
2022-10-07T07:06:11.413Z,13.06
2022-10-07T07:08:41.290Z,13.07
2022-10-07T07:11:26.921Z,13.11
2022-10-07T07:13:55.562Z,13.13
2022-10-07T07:16:24.327Z,13.15
2022-10-07T07:18:53.754Z,13.18
2022-10-07T07:21:22.308Z,13.17
2022-10-07T07:23:51.220Z,13.23
2022-10-07T07:26:21.436Z,13.25
2022-10-07T07:28:52.802Z,13.26
2022-10-07T07:31:21.308Z,13.29
2022-10-07T07:33:52.562Z,13.33
2022-10-07T07:36:23.343Z,13.35
2022-10-07T07:38:53.192Z,13.36
2022-10-07T07:41:24.761Z,13.39
2022-10-07T07:43:54.122Z,13.43
2022-10-07T07:46:25.784Z,13.47
2022-10-07T07:48:53.994Z,13.49
2022-10-07T07:51:22.787Z,13.51
2022-10-07T07:53:51.115Z,13.54
2022-10-07T07:56:19.774Z,13.56
2022-10-07T07:58:49.243Z,13.61
2022-10-07T08:01:18.904Z,13.64
2022-10-07T08:03:49.149Z,13.67
2022-10-07T08:06:19.593Z,13.69
2022-10-07T08:08:47.663Z,13.66
2022-10-07T08:11:17.390Z,13.70
2022-10-07T08:13:45.908Z,13.73
2022-10-07T08:16:20.093Z,13.75
2022-10-07T08:18:52.395Z,13.77
2022-10-07T08:21:23.105Z,13.78
2022-10-07T08:23:54.444Z,13.84
2022-10-07T08:26:22.400Z,13.85
2022-10-07T08:28:50.597Z,13.86
2022-10-07T08:31:21.405Z,13.87
2022-10-07T08:33:51.197Z,13.91
2022-10-07T08:36:21.632Z,13.89
2022-10-07T08:38:52.616Z,13.80
2022-10-07T08:41:36.513Z,13.82
2022-10-07T08:44:17.775Z,13.79
2022-10-07T08:46:56.238Z,13.81
2022-10-07T08:49:33.812Z,13.81
2022-10-07T08:52:07.830Z,13.83
2022-10-07T08:54:35.708Z,13.84
2022-10-07T08:57:23.267Z,13.87
2022-10-07T08:59:59.332Z,13.88
2022-10-07T09:02:36.517Z,13.90
2022-10-07T09:05:15.709Z,13.95
2022-10-07T09:07:48.123Z,13.98
2022-10-07T09:10:32.107Z,13.97
2022-10-07T09:13:03.750Z,13.98
2022-10-07T09:15:40.254Z,13.98
2022-10-07T09:18:16.373Z,14.00
2022-10-07T09:20:49.631Z,14.04
2022-10-07T09:23:17.929Z,14.11
2022-10-07T09:25:46.004Z,14.15
2022-10-07T09:28:17.891Z,14.20
2022-10-07T09:30:46.019Z,14.27
2022-10-07T09:33:17.785Z,14.30
2022-10-07T09:35:57.386Z,14.41
2022-10-07T09:38:35.982Z,14.53
2022-10-07T09:41:20.520Z,14.57
2022-10-07T09:43:59.591Z,14.58
2022-10-07T09:46:42.255Z,14.62
2022-10-07T09:49:30.953Z,14.64
2022-10-07T09:54:20.251Z,14.74
2022-10-07T09:56:48.496Z,14.78
2022-10-07T09:59:21.393Z,14.81
2022-10-07T10:01:55.738Z,14.85
2022-10-07T10:04:30.674Z,14.86
2022-10-07T10:07:04.504Z,14.85
2022-10-07T10:09:35.392Z,14.86
2022-10-07T10:12:12.286Z,14.86
2022-10-07T10:14:50.079Z,14.89
2022-10-07T10:17:31.609Z,14.90
2022-10-07T10:20:43.549Z,14.93
2022-10-07T10:23:27.840Z,14.93
2022-10-07T10:26:33.399Z,14.94
2022-10-07T10:29:12.004Z,15.00
2022-10-07T10:32:05.310Z,15.05
2022-10-07T10:34:45.056Z,15.05
2022-10-07T10:37:19.138Z,15.03
2022-10-07T10:40:01.120Z,15.00
2022-10-07T10:42:42.141Z,15.01
2022-10-07T10:45:25.244Z,15.00
2022-10-07T10:48:07.456Z,15.00
2022-10-07T10:50:44.656Z,15.07
2022-10-07T10:53:27.536Z,15.16
2022-10-07T10:56:17.206Z,15.22
2022-10-07T10:58:58.218Z,15.27
2022-10-07T11:01:35.404Z,15.32
2022-10-07T11:04:39.611Z,15.37
2022-10-07T11:07:20.697Z,15.41
2022-10-07T11:09:52.561Z,15.46
2022-10-07T11:12:26.465Z,15.47
2022-10-07T11:15:02.743Z,15.46
2022-10-07T11:17:36.446Z,15.46
2022-10-07T11:20:16.851Z,15.47
2022-10-07T11:22:48.919Z,15.42
2022-10-07T11:25:25.666Z,15.48
2022-10-07T11:28:00.452Z,15.49
2022-10-07T11:30:37.963Z,15.42
2022-10-07T11:33:11.368Z,15.41
2022-10-07T11:35:47.690Z,15.42
2022-10-07T11:38:18.508Z,15.46
2022-10-07T11:40:50.429Z,15.47
2022-10-07T11:43:21.028Z,15.53
2022-10-07T11:45:54.788Z,15.54
2022-10-07T11:48:27.644Z,15.55
2022-10-07T11:51:02.414Z,15.54
2022-10-07T11:53:34.627Z,15.54
2022-10-07T11:56:05.744Z,15.54
2022-10-07T11:58:37.385Z,15.57
2022-10-07T12:01:39.817Z,15.61
2022-10-07T12:04:35.305Z,15.69
2022-10-07T12:07:38.263Z,15.70
2022-10-07T12:10:22.020Z,15.75
2022-10-07T12:13:37.638Z,15.76
2022-10-07T12:16:38.909Z,15.76
2022-10-07T12:19:23.486Z,15.79
2022-10-07T12:22:19.904Z,15.76
2022-10-07T12:25:29.283Z,15.72
2022-10-07T12:27:59.281Z,15.70
2022-10-07T12:30:50.596Z,15.71
2022-10-07T12:33:29.915Z,15.74
2022-10-07T12:35:57.828Z,15.78
2022-10-07T12:40:49.649Z,15.81
2022-10-07T12:43:28.175Z,15.82
2022-10-07T12:46:00.610Z,15.82
2022-10-07T12:48:35.908Z,15.87
2022-10-07T12:51:05.966Z,15.87
2022-10-07T12:53:41.634Z,15.83
2022-10-07T12:56:21.091Z,15.85
2022-10-07T12:59:57.714Z,15.86
2022-10-07T13:03:15.338Z,15.87
2022-10-07T13:06:36.822Z,15.89
2022-10-07T13:09:41.251Z,15.84
2022-10-07T13:12:27.633Z,15.82
2022-10-07T13:15:06.022Z,15.73
2022-10-07T13:17:44.719Z,15.76
2022-10-07T13:20:35.973Z,15.77
2022-10-07T13:23:12.666Z,15.74
2022-10-07T13:25:46.256Z,15.73
2022-10-07T13:28:17.964Z,15.77
2022-10-07T13:30:47.071Z,15.79
2022-10-07T13:33:28.047Z,15.84
2022-10-07T13:36:17.634Z,15.83
2022-10-07T13:38:47.290Z,15.83
2022-10-07T13:41:26.146Z,15.82
2022-10-07T13:44:00.457Z,15.77
2022-10-07T13:46:31.335Z,15.77
2022-10-07T13:49:00.518Z,15.76
2022-10-07T13:51:32.833Z,15.73
2022-10-07T13:54:03.111Z,15.74
2022-10-07T13:56:33.740Z,15.73
2022-10-07T13:59:04.523Z,15.73
2022-10-07T14:01:37.867Z,15.75
2022-10-07T14:04:29.799Z,15.77
2022-10-07T14:07:01.156Z,15.76
2022-10-07T14:09:45.554Z,15.73
2022-10-07T14:12:18.119Z,15.68
2022-10-07T14:14:49.828Z,15.53
2022-10-07T14:17:28.355Z,15.42
2022-10-07T14:19:59.185Z,15.33
2022-10-07T14:22:32.216Z,15.28
2022-10-07T14:25:03.567Z,15.21
2022-10-07T14:27:53.177Z,15.18
2022-10-07T14:30:56.132Z,15.20
2022-10-07T14:33:47.699Z,15.19
2022-10-07T14:36:18.076Z,15.17
2022-10-07T14:38:47.564Z,15.17
2022-10-07T14:41:18.248Z,15.19
2022-10-07T14:43:47.990Z,15.21
2022-10-07T14:46:20.680Z,15.20
2022-10-07T14:48:49.520Z,15.23
2022-10-07T14:51:20.086Z,15.19
2022-10-07T14:53:51.255Z,15.19
2022-10-07T14:56:25.223Z,15.16
2022-10-07T14:58:54.175Z,15.16
2022-10-07T15:01:23.785Z,15.13
2022-10-07T15:03:51.715Z,15.09
2022-10-07T15:06:21.489Z,15.06
2022-10-07T15:08:52.433Z,15.01
2022-10-07T15:11:23.332Z,14.99
2022-10-07T15:13:51.383Z,14.98
2022-10-07T15:16:22.068Z,14.93
2022-10-07T15:18:54.366Z,14.91
2022-10-07T15:21:23.417Z,14.89
2022-10-07T15:23:53.157Z,14.87
2022-10-07T15:26:25.369Z,14.84
2022-10-07T15:28:54.340Z,14.82
2022-10-07T15:31:23.382Z,14.79
2022-10-07T15:33:51.607Z,14.81
2022-10-07T15:36:20.908Z,14.80
2022-10-07T15:38:49.449Z,14.74
2022-10-07T15:41:31.528Z,14.77
2022-10-07T15:44:00.037Z,14.73
2022-10-07T15:46:29.017Z,14.75
2022-10-07T15:48:57.306Z,14.72
2022-10-07T15:51:28.086Z,14.66
2022-10-07T15:53:55.994Z,14.63
2022-10-07T15:56:25.468Z,14.65
2022-10-07T15:58:54.167Z,14.62
2022-10-07T16:01:22.302Z,14.59
2022-10-07T16:03:50.927Z,14.56
2022-10-07T16:06:21.651Z,14.51
2022-10-07T16:08:52.088Z,14.47
2022-10-07T16:11:21.388Z,14.40
2022-10-07T16:13:50.263Z,14.40
2022-10-07T16:16:22.618Z,14.35
2022-10-07T16:18:52.225Z,14.28
2022-10-07T16:21:23.142Z,14.25
2022-10-07T16:23:55.941Z,14.24
2022-10-07T16:26:26.961Z,14.24
2022-10-07T16:29:12.951Z,14.25
2022-10-07T16:31:42.534Z,14.29
2022-10-07T16:34:13.418Z,14.29
2022-10-07T16:36:45.536Z,14.30
2022-10-07T16:39:15.889Z,14.30
2022-10-07T16:41:44.214Z,14.34
2022-10-07T16:44:12.410Z,14.32
2022-10-07T16:46:40.793Z,14.32
2022-10-07T16:49:11.697Z,14.27
2022-10-07T16:51:39.539Z,14.21
2022-10-07T16:54:12.956Z,14.18
2022-10-07T16:56:46.101Z,14.15
2022-10-07T16:59:19.735Z,14.19
2022-10-07T17:01:50.945Z,14.17
2022-10-07T17:04:19.166Z,14.13
2022-10-07T17:06:47.121Z,14.11
2022-10-07T17:09:17.435Z,14.07
2022-10-07T17:11:47.661Z,14.04
2022-10-07T17:14:17.646Z,14.02
2022-10-07T17:16:47.268Z,13.98
2022-10-07T17:19:17.474Z,13.96
2022-10-07T17:21:47.076Z,13.97
2022-10-07T17:24:15.980Z,13.99
2022-10-07T17:26:44.113Z,13.96
2022-10-07T17:29:18.494Z,13.91
2022-10-07T17:31:50.186Z,13.94
2022-10-07T17:34:20.507Z,13.90
2022-10-07T17:36:48.852Z,13.91
2022-10-07T17:39:17.332Z,13.89
2022-10-07T17:41:45.344Z,13.92
2022-10-07T17:44:17.510Z,13.92
2022-10-07T17:46:45.667Z,13.91
2022-10-07T17:49:14.310Z,13.91
2022-10-07T17:51:44.116Z,13.84
2022-10-07T17:54:13.995Z,13.87
2022-10-07T17:56:44.494Z,13.87
2022-10-07T17:59:12.582Z,13.88
2022-10-07T18:01:42.416Z,13.91
2022-10-07T18:04:13.158Z,13.92
2022-10-07T18:06:43.333Z,13.94
2022-10-07T18:09:17.300Z,13.96
2022-10-07T18:12:03.070Z,14.00
2022-10-07T18:14:53.273Z,13.97
2022-10-07T18:17:24.705Z,14.01
2022-10-07T18:19:53.038Z,14.06
2022-10-07T18:22:21.064Z,14.07
2022-10-07T18:24:49.799Z,14.06
2022-10-07T18:27:17.687Z,14.05
2022-10-07T18:29:45.890Z,14.01
2022-10-07T18:32:13.868Z,13.99
2022-10-07T18:34:43.248Z,13.95
2022-10-07T18:37:11.123Z,13.94
2022-10-07T18:39:39.256Z,13.90
2022-10-07T18:42:07.572Z,13.86
2022-10-07T18:44:35.487Z,13.85
2022-10-07T18:47:03.395Z,13.87
2022-10-07T18:49:31.234Z,13.86
2022-10-07T18:52:01.494Z,13.81
2022-10-07T18:54:29.331Z,13.77
2022-10-07T18:56:57.447Z,13.76
2022-10-07T18:59:25.299Z,13.79
2022-10-07T19:01:55.544Z,13.76
2022-10-07T19:04:23.719Z,13.73
2022-10-07T19:06:51.584Z,13.73
2022-10-07T19:09:22.117Z,13.77
2022-10-07T19:11:50.524Z,13.72
2022-10-07T19:14:17.529Z,13.77
2022-10-07T19:16:48.988Z,13.73
2022-10-07T19:19:19.309Z,13.74
2022-10-07T19:21:49.177Z,13.77
2022-10-07T19:24:17.659Z,13.74
2022-10-07T19:26:50.020Z,13.70
2022-10-07T19:29:18.866Z,13.71
2022-10-07T19:31:48.908Z,13.72
2022-10-07T19:34:18.607Z,13.68
2022-10-07T19:36:47.358Z,13.65
2022-10-07T19:39:16.433Z,13.61
2022-10-07T19:41:44.371Z,13.63
2022-10-07T19:44:14.453Z,13.63
2022-10-07T19:46:42.612Z,13.64
2022-10-07T19:49:11.650Z,13.64
2022-10-07T19:51:41.970Z,13.65
2022-10-07T19:54:12.954Z,13.61
2022-10-07T19:56:41.898Z,13.61
2022-10-07T19:59:11.622Z,13.58
2022-10-07T20:01:42.453Z,13.59
2022-10-07T20:04:13.275Z,13.66
2022-10-07T20:06:41.602Z,13.68
2022-10-07T20:09:11.560Z,13.69
2022-10-07T20:11:39.600Z,13.69
2022-10-07T20:14:07.697Z,13.72
2022-10-07T20:16:37.309Z,13.74
2022-10-07T20:19:07.869Z,13.73
2022-10-07T20:21:36.555Z,13.63
2022-10-07T20:24:08.526Z,13.68
2022-10-07T20:26:38.451Z,13.70
2022-10-07T20:29:10.027Z,13.72
2022-10-07T20:31:40.440Z,13.76
2022-10-07T20:34:11.450Z,13.72
2022-10-07T20:36:41.399Z,13.78
2022-10-07T20:39:31.760Z,13.79
2022-10-07T20:42:17.136Z,13.73
2022-10-07T20:44:49.336Z,13.74
2022-10-07T20:47:17.978Z,13.73
2022-10-07T20:49:48.770Z,13.71
2022-10-07T20:52:18.681Z,13.72
2022-10-07T20:54:47.516Z,13.73
2022-10-07T20:57:21.442Z,13.73
2022-10-07T20:59:49.520Z,13.74
2022-10-07T21:02:19.135Z,13.75
2022-10-07T21:04:48.579Z,13.74
2022-10-07T21:07:20.560Z,13.77
2022-10-07T21:09:48.614Z,13.79
2022-10-07T21:12:18.263Z,13.76
2022-10-07T21:14:48.476Z,13.76
2022-10-07T21:17:17.271Z,13.74
2022-10-07T21:19:45.309Z,13.73
2022-10-07T21:22:14.547Z,13.69
2022-10-07T21:24:42.415Z,13.67
2022-10-07T21:27:10.477Z,13.66
2022-10-07T21:29:41.041Z,13.63
2022-10-07T21:32:09.731Z,13.63
2022-10-07T21:34:37.785Z,13.60
2022-10-07T21:37:05.759Z,13.63
2022-10-07T21:39:35.018Z,13.63
2022-10-07T21:42:03.019Z,13.64
2022-10-07T21:44:33.399Z,13.65
2022-10-07T21:47:01.200Z,13.58
2022-10-07T21:49:29.065Z,13.62
2022-10-07T21:51:56.904Z,13.64
2022-10-07T21:54:24.749Z,13.67
2022-10-07T21:56:53.988Z,13.64
2022-10-07T21:59:21.852Z,13.62
2022-10-07T22:01:49.756Z,13.63
2022-10-07T22:04:20.078Z,13.64
2022-10-07T22:07:05.561Z,13.63
2022-10-07T22:09:33.599Z,13.62
2022-10-07T22:12:02.801Z,13.65
2022-10-07T22:14:30.754Z,13.65
2022-10-07T22:16:58.847Z,13.68
2022-10-07T22:19:26.773Z,13.67
2022-10-07T22:21:55.005Z,13.67
2022-10-07T22:24:24.064Z,13.67
2022-10-07T22:26:52.246Z,13.66
2022-10-07T22:29:23.097Z,13.63
2022-10-07T22:31:51.036Z,13.64
2022-10-07T22:34:36.642Z,13.60
2022-10-07T22:37:07.731Z,13.59
2022-10-07T22:39:35.716Z,13.56
2022-10-07T22:42:06.444Z,13.56
2022-10-07T22:44:38.543Z,13.52
2022-10-07T22:47:06.466Z,13.52
2022-10-07T22:49:34.344Z,13.48
2022-10-07T22:52:02.215Z,13.44
2022-10-07T22:54:30.562Z,13.43
2022-10-07T22:56:58.446Z,13.42
2022-10-07T22:59:26.343Z,13.42
2022-10-07T23:01:55.547Z,13.44
2022-10-07T23:04:23.373Z,13.50
2022-10-07T23:06:51.244Z,13.49
2022-10-07T23:09:19.286Z,13.50
2022-10-07T23:11:47.162Z,13.52
2022-10-07T23:14:15.075Z,13.54
2022-10-07T23:16:44.811Z,13.55
2022-10-07T23:19:14.352Z,13.58
2022-10-07T23:21:42.256Z,13.57
2022-10-07T23:24:11.644Z,13.54
2022-10-07T23:26:39.524Z,13.55
2022-10-07T23:29:08.661Z,13.57
2022-10-07T23:31:36.662Z,13.58
2022-10-07T23:34:06.613Z,13.57
2022-10-07T23:36:35.842Z,13.55
2022-10-07T23:39:03.953Z,13.59
2022-10-07T23:41:32.032Z,13.59
2022-10-07T23:44:01.961Z,13.58
2022-10-07T23:46:33.162Z,13.59
2022-10-07T23:49:01.399Z,13.61
2022-10-07T23:51:29.900Z,13.66
2022-10-07T23:53:59.839Z,13.67
2022-10-07T23:56:27.707Z,13.68
2022-10-07T23:58:55.571Z,13.69
